Great Barford, United Kingdom
Current Conditions -  °F | °C
As of 1:20 PM on Friday 31 Oct 2014 (Local Time) from EGTC Reporting Station
Clear Clear  
Wind Chill: 22°   Ceiling: Unl
Heat Index: 22°   Visibility: 6mi
Dew Point: 15°   Wind: 16mph
Humidity: 64%   Direction: 190°S
Pressure: 29.97"   Gusts: NA
Location:  52.16°N, 0.35°W
Report Text: EGTC 311320Z 19014KT CAVOK 22/15 Q1015
Loading
Personal Weather Stations






























Interactive Weather Map
Tropical Storm Tracking
New forecast layout! Learn more

10-Day Weather Forecast

Advertisements
Track Severe Weather on mobile